Data for 06/15/2007

Time Sea-Level Adjusted Pressure Absolute Pressure Temperature Relative Humidity Dew Point   
(mb) (inHg) (mb) (inHg) (C) (F) (%) (C) (F)
00:05 1018 30.06 848 25.04 15.3 59.5 33 -0.7 30.8
00:10 1018 30.06 848 25.04 15.3 59.5 34 -0.2 31.6
00:15 1019 30.09 848 25.04 15.2 59.4 43 2.8 37.1
00:20 1019 30.09 848 25.04 14.9 58.9 40 1.7 35
00:25 1019 30.09 848 25.04 15.1 59.1 39 1.2 34.1
00:30 1019 30.09 848 25.04 15.2 59.3 35 -0.1 31.9
00:35 1019 30.09 848 25.04 15.1 59.2 37 0.8 33.4
00:40 1019 30.09 848 25.04 15.1 59.1 33 -1 30.1
00:45 1019 30.09 848 25.04 15.1 59.2 32 -1.5 29.3
00:50 1019 30.09 848 25.04 15.3 59.5 33 -0.6 30.9
00:55 1019 30.09 848 25.04 15.4 59.6 33 -0.7 30.8
01:00 1019 30.09 848 25.04 15.1 59.3 34 -0.6 31
01:05 1019 30.09 848 25.04 15 58.9 36 0.3 32.5
01:10 1019 30.09 848 25.04 14.8 58.6 38 0.6 33.1
01:15 1019 30.09 848 25.04 14.7 58.5 38 0.8 33.4
01:20 1019 30.09 848 25.04 14.6 58.3 41 1.4 34.6
01:25 1019 30.09 848 25.04 14.1 57.4 48 3.3 37.9
01:30 1019 30.09 848 25.04 13.3 55.9 51 3.4 38.1
01:35 1019 30.09 848 25.04 12.9 55.2 50 2.9 37.2
01:40 1019 30.09 848 25.04 12.8 55 50 2.8 37
01:45 1019 30.09 848 25.04 12.8 55.1 48 2.1 35.7
01:50 1018 30.06 848 25.04 12.8 55 46 1.5 34.7
01:55 1018 30.06 848 25.04 12.8 55.1 46 1.6 35
02:00 1018 30.06 848 25.04 12.9 55.3 43 0.6 33.1
02:05 1018 30.06 848 25.04 13.1 55.6 41 0.1 32.2
02:10 1018 30.06 848 25.04 13.1 55.6 43 0.8 33.4
02:15 1018 30.06 848 25.04 13 55.4 46 1.7 35.1
02:20 1018 30.06 848 25.04 12.7 54.8 47 1.7 35.1
02:25 1018 30.06 848 25.04 12.5 54.5 46 1.4 34.5
02:30 1018 30.06 848 25.04 12.4 54.4 45 0.8 33.5
02:35 1018 30.06 848 25.04 12.4 54.4 44 0.6 33.1
02:40 1018 30.06 848 25.04 12.6 54.6 41 -0.3 31.5
02:45 1018 30.06 848 25.04 12.8 55 40 -0.5 31.1
02:50 1018 30.06 848 25.04 12.8 55 39 -0.6 30.9
02:55 1018 30.06 848 25.04 12.8 55 40 -0.5 31.1
03:00 1019 30.09 848 25.04 12.7 54.9 40 -0.4 31.3
03:05 1019 30.09 848 25.04 12.6 54.6 43 0.4 32.8
03:10 1019 30.09 848 25.04 12.4 54.4 47 1.4 34.5
03:15 1019 30.09 848 25.04 12.2 53.9 49 1.8 35.2
03:20 1019 30.09 848 25.04 12 53.6 47 1 33.9
03:25 1019 30.09 848 25.04 12.1 53.8 44 0.3 32.6
03:30 1019 30.09 848 25.04 12.2 54 43 0.1 32.2
03:35 1019 30.09 848 25.04 12.3 54.2 41 -0.5 31.1
03:40 1019 30.09 848 25.04 12.4 54.3 40 -0.7 30.7
03:45 1019 30.09 848 25.04 12.4 54.4 40 -0.7 30.7
03:50 1019 30.09 848 25.04 12.5 54.4 38 -1.3 29.7
03:55 1019 30.09 848 25.04 12.6 54.7 37 -1.6 29.1
04:00 1019 30.09 848 25.04 12.6 54.7 42 0.1 32.1
04:05 1019 30.09 848 25.04 12.2 53.9 43 -0 31.9
04:10 1019 30.09 848 25.04 12.1 53.7 44 0.1 32.2
04:15 1019 30.09 848 25.04 12.1 53.8 43 0.1 32.2
04:20 1019 30.09 848 25.04 12 53.6 45 0.5 33
04:25 1019 30.09 848 25.04 11.9 53.4 47 1.1 33.9
04:30 1019 30.09 848 25.04 11.9 53.3 49 1.6 34.9
04:35 1019 30.09 848 25.04 11.7 53.1 51 1.9 35.4
04:40 1019 30.09 848 25.04 11.6 52.9 51 1.8 35.2
04:45 1019 30.09 848 25.04 11.6 52.8 51 1.9 35.5
04:50 1019 30.09 848 25.04 11.2 52.2 54 2.4 36.3
04:55 1019 30.09 848 25.04 10.9 51.7 57 2.7 36.9
05:00 1019 30.09 848 25.04 10.7 51.3 57 2.6 36.6
05:05 1019 30.09 848 25.04 10.7 51.2 57 2.6 36.7
05:10 1019 30.09 848 25.04 10.7 51.2 56 2.4 36.3
05:15 1019 30.09 848 25.04 10.6 51.1 59 2.9 37.3
05:20 1019 30.09 848 25.04 10.4 50.8 59 2.8 37
05:25 1019 30.09 848 25.04 10.2 50.4 61 3 37.4
05:30 1019 30.09 848 25.04 10.1 50.1 62 3.1 37.5
05:35 1019 30.09 848 25.04 9.9 49.9 61 2.7 36.9
05:40 1019 30.09 848 25.04 9.9 49.7 62 3 37.3
05:45 1019 30.09 848 25.04 9.7 49.4 63 3 37.4
05:50 1019 30.09 848 25.04 9.7 49.4 63 3 37.4
05:55 1019 30.09 848 25.04 9.6 49.3 62 2.7 36.9
06:00 1019 30.09 848 25.04 9.5 49 62 2.7 36.8
06:05 1019 30.09 848 25.04 9.1 48.4 64 2.6 36.7
06:10 1019 30.09 848 25.04 9 48.1 64 2.5 36.5
06:15 1019 30.09 848 25.04 9 48.2 63 2.3 36.1
06:20 1019 30.09 848 25.04 9.2 48.6 61 2.1 35.8
06:25 1019 30.09 848 25.04 9.4 48.9 60 2.2 35.9
06:30 1019 30.09 848 25.04 9.5 49.1 60 2.1 35.8
06:35 1019 30.09 848 25.04 9.4 48.9 58 1.6 34.9
06:40 1019 30.09 848 25.04 9.2 48.6 60 1.9 35.4
06:45 1019 30.09 848 25.04 9.4 49 60 2 35.6
06:50 1019 30.09 848 25.04 9.4 49 61 2.4 36.3
06:55 1019 30.09 848 25.04 9.5 49.1 62 2.6 36.6
07:00 1019 30.09 848 25.04 9.6 49.3 63 2.9 37.2
07:05 1019 30.09 848 25.04 9.6 49.2 63 3 37.3
07:10 1019 30.09 848 25.04 9.7 49.4 64 3.2 37.7
07:15 1019 30.09 848 25.04 9.8 49.7 64 3.4 38.1
07:20 1019 30.09 848 25.04 10.1 50.3 63 3.4 38.1
07:25 1019 30.09 848 25.04 10.5 51 62 3.7 38.6
07:30 1019 30.09 848 25.04 10.7 51.3 62 3.8 38.9
07:35 1019 30.09 848 25.04 10.9 51.6 63 4.1 39.3
07:40 1019 30.09 848 25.04 11 51.8 63 4.3 39.8
07:45 1019 30.09 848 25.04 11.2 52.2 63 4.4 40
07:50 1019 30.09 848 25.04 11.6 52.8 62 4.6 40.2
07:55 1019 30.09 848 25.04 12 53.6 59 4.3 39.8
08:00 1019 30.09 848 25.04 12.4 54.2 58 4.4 39.9
08:05 1019 30.09 848 25.04 12.3 54.2 59 4.6 40.2
08:10 1019 30.09 848 25.04 12.3 54.1 58 4.4 39.9
08:15 1019 30.09 848 25.04 12.6 54.7 57 4.5 40
08:20 1019 30.09 848 25.04 13.1 55.5 54 4.1 39.3
08:25 1019 30.09 848 25.04 13.5 56.3 54 4.4 40
08:30 1019 30.09 848 25.04 13.6 56.4 54 4.4 39.9
08:35 1019 30.09 848 25.04 13.7 56.6 51 3.9 38.9
08:40 1019 30.09 848 25.04 13.7 56.7 51 3.9 38.9
08:45 1019 30.09 848 25.04 14 57.1 49 3.5 38.2
08:50 1019 30.09 849 25.07 14.1 57.4 47 3.1 37.7
08:55 1019 30.09 849 25.07 14.1 57.5 46 2.7 36.9
09:00 1019 30.09 849 25.07 14.2 57.6 47 3.1 37.6
09:05 1019 30.09 849 25.07 14.3 57.8 47 3.3 38
09:10 1019 30.09 849 25.07 14.6 58.3 46 3.1 37.6
09:15 1019 30.09 849 25.07 14.8 58.7 46 3.3 38
09:20 1019 30.09 849 25.07 14.8 58.6 45 3 37.4
09:25 1019 30.09 849 25.07 14.9 58.8 45 3.2 37.8
09:30 1019 30.09 848 25.04 14.8 58.6 47 3.7 38.7
09:35 1019 30.09 849 25.07 15.2 59.3 45 3.4 38.2
09:40 1019 30.09 849 25.07 15.5 59.8 44 3.3 38
09:45 1019 30.09 849 25.07 15.6 60 44 3.5 38.3
09:50 1019 30.09 848 25.04 16 60.7 43 3.6 38.5
09:55 1019 30.09 848 25.04 15.7 60.3 46 4.1 39.4
10:00 1019 30.09 848 25.04 16.2 61.2 43 3.7 38.6
10:05 1019 30.09 848 25.04 16.4 61.6 43 3.8 38.9
10:10 1019 30.09 848 25.04 16.2 61.2 43 3.7 38.6
10:15 1019 30.09 848 25.04 16.2 61.2 42 3.3 38
10:20 1019 30.09 848 25.04 16.3 61.3 45 4.4 39.9
10:25 1019 30.09 848 25.04 16.7 62 43 4 39.2
10:30 1019 30.09 848 25.04 17.1 62.8 41 4 39.2
10:35 1019 30.09 848 25.04 17.3 63.1 41 4 39.2
10:40 1019 30.09 848 25.04 17.6 63.7 40 3.9 39
10:45 1019 30.09 848 25.04 17.6 63.6 40 4 39.1
10:50 1019 30.09 848 25.04 18.3 64.9 39 4.4 39.8
10:55 1019 30.09 848 25.04 17.8 64 41 4.6 40.3
11:00 1019 30.09 848 25.04 18 64.4 40 4.3 39.7
11:05 1019 30.09 848 25.04 18.1 64.5 37 3.3 38
11:10 1019 30.09 848 25.04 18.4 65 35 2.9 37.2
11:15 1019 30.09 848 25.04 18.4 65.2 36 3.2 37.8
11:20 1019 30.09 848 25.04 18.7 65.6 36 3.6 38.4
11:25 1019 30.09 848 25.04 18.2 64.7 38 3.7 38.6
11:30 1019 30.09 848 25.04 18.6 65.4 35 3.1 37.5
11:35 1019 30.09 848 25.04 18.7 65.6 36 3.4 38.2
11:40 1019 30.09 848 25.04 18.5 65.2 37 3.7 38.7
11:45 1019 30.09 848 25.04 18.5 65.3 38 3.9 39.1
11:50 1019 30.09 848 25.04 18.7 65.7 37 4 39.3
11:55 1019 30.09 848 25.04 18.8 65.8 38 4.4 40
12:00 1019 30.09 848 25.04 19.6 67.3 35 3.9 39.1
12:05 1019 30.09 848 25.04 20.5 68.8 35 4.7 40.5
12:10 1019 30.09 848 25.04 20.1 68.2 36 4.9 40.8
12:15 1019 30.09 848 25.04 19.1 66.3 37 4.3 39.8
12:20 1019 30.09 848 25.04 18.9 65.9 39 4.7 40.5
12:25 1019 30.09 848 25.04 19.9 67.8 35 4 39.2
12:30 1019 30.09 848 25.04 20.4 68.8 38 5.7 42.2
12:35 1019 30.09 848 25.04 19.8 67.7 38 5.4 41.8
12:40 1019 30.09 848 25.04 19.8 67.7 39 5.6 42.1
12:45 1018 30.06 848 25.04 19.6 67.2 38 5.2 41.4
12:50 1018 30.06 848 25.04 19.8 67.6 37 4.9 40.9
12:55 1018 30.06 848 25.04 20.9 69.6 34 4.7 40.5
13:00 1018 30.06 847 25.01 21.6 70.9 35 5.6 42.1
13:05 1018 30.06 847 25.01 20.6 69.1 38 5.8 42.5
13:10 1018 30.06 847 25.01 20 68 36 4.7 40.5
13:15 1018 30.06 847 25.01 20.3 68.5 36 4.9 40.8
13:20 1018 30.06 847 25.01 20.6 69.1 35 4.8 40.6
13:25 1018 30.06 847 25.01 21.1 70.1 33 4.5 40
13:30 1018 30.06 847 25.01 22.1 71.7 32 4.8 40.6
13:35 1018 30.06 847 25.01 21.6 70.9 35 5.7 42.2
13:40 1018 30.06 847 25.01 20.9 69.6 34 4.5 40
13:45 1018 30.06 847 25.01 21.2 70.2 36 5.7 42.3
13:50 1018 30.06 847 25.01 20.6 69 35 4.6 40.4
13:55 1018 30.06 847 25.01 20.7 69.3 34 4.5 40
14:00 1018 30.06 847 25.01 21.9 71.4 31 4.3 39.8
14:05 1018 30.06 847 25.01 23 73.5 32 5.6 42
14:10 1018 30.06 847 25.01 23.3 74 28 4.2 39.5
14:15 1018 30.06 847 25.01 22.8 73 30 4.7 40.4
14:20 1017 30.03 847 25.01 22.3 72.1 31 4.6 40.3
14:25 1017 30.03 847 25.01 21.9 71.5 31 4.3 39.8
14:30 1017 30.03 847 25.01 22.3 72.1 31 4.6 40.3
14:35 1017 30.03 847 25.01 22.6 72.6 32 5.2 41.4
14:40 1017 30.03 846 24.98 22.9 73.2 29 4.2 39.6
14:45 1017 30.03 846 24.98 24 75.2 27 3.9 39.1
14:50 1017 30.03 846 24.98 24.4 75.9 28 4.7 40.5
14:55 1017 30.03 846 24.98 24.4 76 28 4.9 40.9
15:00 1017 30.03 846 24.98 23.7 74.7 29 4.7 40.5
15:05 1017 30.03 846 24.98 23.1 73.7 29 4.5 40
15:10 1017 30.03 846 24.98 23.3 74 29 4.6 40.2
15:15 1017 30.03 846 24.98 23.5 74.3 29 4.7 40.5
15:20 1017 30.03 846 24.98 24.6 76.3 25 3.5 38.3
15:25 1017 30.03 846 24.98 23 73.4 28 3.5 38.4
15:30 1017 30.03 846 24.98 23.2 73.8 28 4 39.2
15:35 1017 30.03 846 24.98 23.6 74.5 28 4.2 39.6
15:40 1017 30.03 846 24.98 24 75.3 26 3.3 38
15:45 1017 30.03 846 24.98 24.5 76.1 25 3.7 38.6
15:50 1017 30.03 846 24.98 23.9 75.1 34 7.2 45
15:55 1017 30.03 846 24.98 23.7 74.7 35 7.4 45.4
16:00 1017 30.03 846 24.98 23.2 73.8 37 8.1 46.6
16:05 1017 30.03 846 24.98 22.3 72.1 37 7 44.6
16:10 1017 30.03 846 24.98 21.8 71.2 39 7.3 45.1
16:15 1016 30 846 24.98 22.2 71.9 39 7.9 46.3
16:20 1016 30 846 24.98 22 71.6 39 7.7 45.9
16:25 1016 30 846 24.98 21.8 71.2 40 7.7 45.8
16:30 1017 30.03 846 24.98 21.2 70.2 41 7.8 46
16:35 1016 30 846 24.98 21.7 71 40 7.8 46
16:40 1016 30 846 24.98 21.8 71.2 41 8 46.3
16:45 1016 30 846 24.98 22.1 71.7 41 8.5 47.3
16:50 1016 30 846 24.98 21.3 70.3 43 8.4 47.1
16:55 1016 30 846 24.98 21.1 69.9 44 8.7 47.6
17:00 1016 30 846 24.98 21.2 70.2 45 9.1 48.3
17:05 1016 30 846 24.98 21.4 70.5 41 7.8 46.1
17:10 1016 30 846 24.98 21.3 70.4 43 8.3 46.9
17:15 1016 30 846 24.98 21.3 70.4 44 8.7 47.7
17:20 1016 30 846 24.98 21 69.7 45 8.8 47.9
17:25 1016 30 845 24.95 21.1 69.9 44 8.5 47.3
17:30 1016 30 845 24.95 20.6 69.1 45 8.4 47
17:35 1016 30 845 24.95 20.4 68.7 46 8.4 47.1
17:40 1016 30 845 24.95 20.3 68.5 46 8.4 47.2
17:45 1016 30 845 24.95 20.2 68.4 46 8.4 47.1
17:50 1016 30 845 24.95 19.8 67.6 47 8.2 46.7
17:55 1016 30 845 24.95 20 68.1 47 8.5 47.3
18:00 1016 30 845 24.95 20.2 68.4 45 8 46.3
18:05 1016 30 845 24.95 19.8 67.6 45 7.8 46
18:10 1016 30 845 24.95 19.8 67.6 45 7.6 45.6
18:15 1016 30 845 24.95 19.5 67 46 7.8 46.1
18:20 1016 30 845 24.95 19.5 67.2 45 7.4 45.3
18:25 1016 30 845 24.95 19.3 66.7 47 7.9 46.2
18:30 1016 30 845 24.95 19.3 66.7 47 7.7 45.9
18:35 1016 30 845 24.95 19 66.2 48 7.8 46
18:40 1016 30 845 24.95 19 66.1 48 7.8 46.1
18:45 1016 30 845 24.95 18.8 65.8 48 7.7 45.9
18:50 1016 30 845 24.95 18.6 65.4 50 8 46.4
18:55 1016 30 845 24.95 18.4 65.2 51 8.3 46.9
19:00 1016 30 845 24.95 18.3 65 52 8.5 47.4
19:05 1016 30 845 24.95 18.4 65.1 53 8.7 47.6
19:10 1016 30 845 24.95 18.3 65 53 8.7 47.7
19:15 1016 30 845 24.95 18.1 64.6 54 8.7 47.7
19:20 1016 30 845 24.95 18.1 64.5 54 8.6 47.5
19:25 1016 30 845 24.95 17.9 64.3 53 8.3 46.9
19:30 1016 30 846 24.98 17.9 64.3 54 8.7 47.6
19:35 1017 30.03 846 24.98 17.6 63.7 57 9 48.2
19:40 1017 30.03 846 24.98 17.3 63.1 57 8.8 47.8
19:45 1016 30 846 24.98 17.1 62.8 58 8.9 48
19:50 1016 30 846 24.98 17 62.6 57 8.6 47.5
19:55 1016 30 846 24.98 16.9 62.5 58 8.7 47.6
20:00 1017 30.03 846 24.98 16.8 62.3 58 8.6 47.4
20:05 1017 30.03 846 24.98 16.7 62.1 58 8.5 47.4
20:10 1016 30 846 24.98 16.8 62.2 58 8.6 47.6
20:15 1016 30 846 24.98 16.6 61.9 59 8.7 47.6
20:20 1016 30 846 24.98 16.5 61.7 60 8.7 47.7
20:25 1017 30.03 846 24.98 16.5 61.6 60 8.6 47.6
20:30 1017 30.03 846 24.98 16.3 61.3 60 8.7 47.6
20:35 1017 30.03 846 24.98 16.1 60.9 61 8.7 47.7
20:40 1017 30.03 846 24.98 15.9 60.6 63 8.9 48
20:45 1017 30.03 846 24.98 15.7 60.2 64 8.9 48
20:50 1017 30.03 846 24.98 15.5 59.9 65 8.9 48.1
20:55 1017 30.03 846 24.98 15.4 59.6 65 9 48.2
21:00 1017 30.03 846 24.98 15.2 59.4 66 9 48.3
21:05 1017 30.03 846 24.98 15.1 59.1 67 9 48.2
21:10 1017 30.03 846 24.98 15 59 67 9 48.2
21:15 1017 30.03 846 24.98 14.9 58.9 67 9 48.2
21:20 1017 30.03 846 24.98 14.8 58.7 68 9 48.3
21:25 1017 30.03 846 24.98 14.7 58.5 68 8.9 48.1
21:30 1017 30.03 846 24.98 14.7 58.4 68 8.9 48
21:35 1017 30.03 846 24.98 14.6 58.3 68 8.9 48
21:40 1017 30.03 846 24.98 14.5 58 69 8.9 48
21:45 1017 30.03 846 24.98 14.4 57.9 69 8.9 48
21:50 1018 30.06 847 25.01 14.3 57.8 70 9 48.1
21:55 1018 30.06 847 25.01 14.2 57.6 70 9 48.2
22:00 1018 30.06 847 25.01 14.2 57.6 71 9 48.2
22:05 1018 30.06 847 25.01 14.1 57.4 71 9 48.2
22:10 1018 30.06 847 25.01 14.1 57.3 71 9 48.2
22:15 1018 30.06 847 25.01 14 57.3 71 9 48.2
22:20 1018 30.06 847 25.01 14 57.2 72 9 48.2
22:25 1018 30.06 847 25.01 14 57.1 72 9 48.2
22:30 1018 30.06 847 25.01 13.9 57 72 9 48.2
22:35 1018 30.06 847 25.01 13.9 57 72 9 48.3
22:40 1018 30.06 847 25.01 13.8 56.9 73 9.1 48.3
22:45 1018 30.06 847 25.01 13.8 56.8 73 9.1 48.4
22:50 1018 30.06 847 25.01 13.7 56.6 74 9.1 48.5
22:55 1018 30.06 847 25.01 13.7 56.6 74 9.1 48.3
23:00 1018 30.06 847 25.01 13.6 56.4 74 9.1 48.5
23:05 1018 30.06 847 25.01 13.5 56.3 75 9.1 48.4
23:10 1018 30.06 847 25.01 13.4 56.2 75 9.2 48.5
23:15 1018 30.06 847 25.01 13.4 56 76 9.2 48.5
23:20 1018 30.06 847 25.01 13.3 56 76 9.2 48.6
23:25 1018 30.06 847 25.01 13.3 55.9 76 9.2 48.5
23:30 1018 30.06 847 25.01 13.3 55.9 76 9.2 48.6
23:35 1018 30.06 847 25.01 13.3 55.9 76 9.2 48.6
23:40 1018 30.06 848 25.04 13.2 55.8 77 9.2 48.6
23:45 1018 30.06 848 25.04 13.3 55.9 76 9.2 48.6
23:50 1018 30.06 848 25.04 13.2 55.7 77 9.3 48.7
23:55 1018 30.06 848 25.04 13.1 55.6 77 9.3 48.7
24:00 1018 30.06 848 25.04 13 55.5 78 9.3 48.7